Strona główna
METAR-TAF:

METAR-TAF

Lotnisko :

Port lotniczy Singapur-Changi

Singapur, Singapur

Szerokość geograficzna: 01-22N, Długość geograficzna: 103-59E, wysokość: 5 m

Aktualna obserwacja pogody

Raport powstał 23 minut temu, godzina 22:30 UTC
Wiatr 2 kt od zachodnio-północny zachód
Temperatura 27°C
Wilgotność 89%
Ciśnienie 1010 hPa
Widzialność: 7000 m
Mało chmury na wysokości 1800 ft
Przerywane chmury na wysokości 30000 ft

METAR: WSSS 102230Z 30002KT 7000 FEW018 BKN300 27/25 Q1010 NOSIG

czas: 06:53 (22:53 UTC)

Prognoza

Raport powstał 5 godziny i 53 minut temu, godzina 17:00 UTC
Prognoza ważna od 10 godzina 18 UTC do 12 godzina 00 UTC
Wiatr 7 kt od północ
Widzialność 10 km lub więcej
Mało chmury na wysokości 1500 ft
Rozproszone chmury na wysokości 2000 ft

TAF: WSSS 101700Z 1018/1200 01007KT 9999 FEW015 SCT020

Obserwacja i prognoza pogody dla ponad 4000 lotnisk (raport METAR i TAF).

Dostępne stacje oznaczono żółtymi i czerwonymi punktami na mapie.

Najedź kursorem aby zobaczyć nazwę stacji.

Kliknij aby zobaczyć obserwacje i prognozy pogody.

Aby zmienić mapę: kliknij na zielony przycisk z czarnym krzyżykiem, aby powiększyć; na zielony przycisk z myślnikiem, aby pomniejszyć; na zielone strzałki, aby przejść do map sąsiednich.


METAR-TAF: